sensor_id;sensor_type;location;lat;lon;timestamp;pressure;altitude;pressure_sealevel;temperature;humidity
76108;BME280;64834;52.516;10.528;2022-11-20T00:01:30;100706.28;;;-2.11;83.47
76108;BME280;64834;52.516;10.528;2022-11-20T00:03:56;100703.47;;;-2.06;83.11
76108;BME280;64834;52.516;10.528;2022-11-20T00:06:23;100700.47;;;-2.02;82.83
76108;BME280;64834;52.516;10.528;2022-11-20T00:08:48;100705.00;;;-1.99;82.68
76108;BME280;64834;52.516;10.528;2022-11-20T00:11:19;100695.50;;;-2.00;82.80
76108;BME280;64834;52.516;10.528;2022-11-20T00:13:45;100699.72;;;-2.01;82.66
76108;BME280;64834;52.516;10.528;2022-11-20T00:16:13;100692.97;;;-2.16;83.59
76108;BME280;64834;52.516;10.528;2022-11-20T00:18:39;100688.00;;;-2.14;83.95
76108;BME280;64834;52.516;10.528;2022-11-20T00:21:13;100688.50;;;-2.10;84.09
76108;BME280;64834;52.516;10.528;2022-11-20T00:23:39;100693.97;;;-2.07;83.22
76108;BME280;64834;52.516;10.528;2022-11-20T00:26:09;100697.25;;;-2.08;83.74
76108;BME280;64834;52.516;10.528;2022-11-20T00:28:35;100690.66;;;-2.06;83.71
76108;BME280;64834;52.516;10.528;2022-11-20T00:31:06;100684.88;;;-2.12;83.52
76108;BME280;64834;52.516;10.528;2022-11-20T00:33:32;100689.25;;;-2.11;83.89
76108;BME280;64834;52.516;10.528;2022-11-20T00:36:06;100694.38;;;-2.11;83.92
76108;BME280;64834;52.516;10.528;2022-11-20T00:38:32;100683.47;;;-2.17;84.02
76108;BME280;64834;52.516;10.528;2022-11-20T00:40:59;100689.84;;;-2.13;84.20
76108;BME280;64834;52.516;10.528;2022-11-20T00:43:26;100687.34;;;-2.05;83.78
76108;BME280;64834;52.516;10.528;2022-11-20T00:45:59;100687.09;;;-2.15;84.07
76108;BME280;64834;52.516;10.528;2022-11-20T00:48:25;100689.41;;;-2.09;84.17
76108;BME280;64834;52.516;10.528;2022-11-20T00:50:51;100693.50;;;-2.03;83.61
76108;BME280;64834;52.516;10.528;2022-11-20T00:53:16;100688.22;;;-2.04;83.56
76108;BME280;64834;52.516;10.528;2022-11-20T00:55:42;100688.50;;;-2.10;84.08
76108;BME280;64834;52.516;10.528;2022-11-20T00:58:07;100687.38;;;-1.96;83.66
76108;BME280;64834;52.516;10.528;2022-11-20T01:00:32;100694.22;;;-2.12;84.16
76108;BME280;64834;52.516;10.528;2022-11-20T01:02:58;100688.13;;;-1.97;83.67
76108;BME280;64834;52.516;10.528;2022-11-20T01:05:23;100693.84;;;-2.00;83.80
76108;BME280;64834;52.516;10.528;2022-11-20T01:07:48;100691.75;;;-1.95;83.81
76108;BME280;64834;52.516;10.528;2022-11-20T01:10:14;100686.47;;;-1.97;83.60
76108;BME280;64834;52.516;10.528;2022-11-20T01:12:39;100683.97;;;-1.88;83.48
76108;BME280;64834;52.516;10.528;2022-11-20T01:15:05;100692.50;;;-1.96;83.91
76108;BME280;64834;52.516;10.528;2022-11-20T01:17:31;100690.84;;;-1.96;83.96
76108;BME280;64834;52.516;10.528;2022-11-20T01:19:56;100688.75;;;-1.91;83.64
76108;BME280;64834;52.516;10.528;2022-11-20T01:22:22;100684.13;;;-1.86;83.42
76108;BME280;64834;52.516;10.528;2022-11-20T01:24:47;100688.97;;;-1.81;83.41
76108;BME280;64834;52.516;10.528;2022-11-20T01:27:13;100681.44;;;-1.79;82.61
76108;BME280;64834;52.516;10.528;2022-11-20T01:29:38;100691.31;;;-1.91;83.18
76108;BME280;64834;52.516;10.528;2022-11-20T01:32:04;100679.03;;;-2.02;83.33
76108;BME280;64834;52.516;10.528;2022-11-20T01:34:29;100674.16;;;-1.83;82.80
76108;BME280;64834;52.516;10.528;2022-11-20T01:36:54;100680.66;;;-1.87;83.11
76108;BME280;64834;52.516;10.528;2022-11-20T01:39:25;100673.22;;;-1.93;83.51
76108;BME280;64834;52.516;10.528;2022-11-20T01:41:52;100656.94;;;-1.93;83.03
76108;BME280;64834;52.516;10.528;2022-11-20T01:44:50;100672.88;;;-1.96;83.82
76108;BME280;64834;52.516;10.528;2022-11-20T01:50:19;100662.22;;;-1.92;83.62
76108;BME280;64834;52.516;10.528;2022-11-20T01:53:02;100654.16;;;-2.03;83.29
76108;BME280;64834;52.516;10.528;2022-11-20T01:55:33;100660.25;;;-1.94;83.49
76108;BME280;64834;52.516;10.528;2022-11-20T01:58:00;100656.03;;;-1.94;83.47
76108;BME280;64834;52.516;10.528;2022-11-20T02:00:26;100656.28;;;-1.75;82.90
76108;BME280;64834;52.516;10.528;2022-11-20T02:02:54;100652.63;;;-1.77;83.01
76108;BME280;64834;52.516;10.528;2022-11-20T02:05:49;100649.75;;;-1.80;83.39
76108;BME280;64834;52.516;10.528;2022-11-20T02:08:17;100644.25;;;-1.92;83.67
76108;BME280;64834;52.516;10.528;2022-11-20T02:10:43;100643.22;;;-1.94;83.35
76108;BME280;64834;52.516;10.528;2022-11-20T02:13:08;100637.47;;;-1.91;83.21
76108;BME280;64834;52.516;10.528;2022-11-20T02:15:53;100634.50;;;-1.87;83.43
76108;BME280;64834;52.516;10.528;2022-11-20T02:18:20;100628.75;;;-1.84;83.09
76108;BME280;64834;52.516;10.528;2022-11-20T02:20:48;100637.06;;;-1.78;82.79
76108;BME280;64834;52.516;10.528;2022-11-20T02:23:20;100630.63;;;-1.75;83.26
76108;BME280;64834;52.516;10.528;2022-11-20T02:25:47;100631.16;;;-1.86;83.15
76108;BME280;64834;52.516;10.528;2022-11-20T02:28:14;100631.81;;;-1.80;83.25
76108;BME280;64834;52.516;10.528;2022-11-20T02:30:40;100629.50;;;-1.85;83.41
76108;BME280;64834;52.516;10.528;2022-11-20T02:33:05;100620.88;;;-1.95;83.80
76108;BME280;64834;52.516;10.528;2022-11-20T02:37:58;100621.22;;;-1.83;83.72
76108;BME280;64834;52.516;10.528;2022-11-20T02:40:24;100617.28;;;-1.88;84.13
76108;BME280;64834;52.516;10.528;2022-11-20T02:42:54;100622.13;;;-1.82;83.67
76108;BME280;64834;52.516;10.528;2022-11-20T02:45:20;100620.56;;;-1.98;84.39
76108;BME280;64834;52.516;10.528;2022-11-20T02:47:45;100616.81;;;-1.93;84.07
76108;BME280;64834;52.516;10.528;2022-11-20T02:50:10;100620.16;;;-1.85;83.86
76108;BME280;64834;52.516;10.528;2022-11-20T02:52:36;100613.81;;;-1.88;83.92
76108;BME280;64834;52.516;10.528;2022-11-20T02:55:01;100607.47;;;-1.83;84.04
76108;BME280;64834;52.516;10.528;2022-11-20T02:57:27;100608.38;;;-1.92;84.13
76108;BME280;64834;52.516;10.528;2022-11-20T02:59:53;100613.69;;;-1.81;83.83
76108;BME280;64834;52.516;10.528;2022-11-20T03:02:18;100607.06;;;-1.79;83.82
76108;BME280;64834;52.516;10.528;2022-11-20T03:04:43;100611.75;;;-1.75;83.45
76108;BME280;64834;52.516;10.528;2022-11-20T03:07:09;100606.94;;;-1.72;83.27
76108;BME280;64834;52.516;10.528;2022-11-20T03:09:34;100602.63;;;-1.89;83.67
76108;BME280;64834;52.516;10.528;2022-11-20T03:12:00;100603.09;;;-1.84;83.95
76108;BME280;64834;52.516;10.528;2022-11-20T03:14:25;100608.38;;;-1.92;84.20
76108;BME280;64834;52.516;10.528;2022-11-20T03:16:50;100607.59;;;-1.99;84.22
76108;BME280;64834;52.516;10.528;2022-11-20T03:19:16;100595.53;;;-1.92;83.99
76108;BME280;64834;52.516;10.528;2022-11-20T03:21:41;100603.09;;;-1.84;83.77
76108;BME280;64834;52.516;10.528;2022-11-20T03:24:07;100600.00;;;-1.73;83.47
76108;BME280;64834;52.516;10.528;2022-11-20T03:26:32;100606.91;;;-1.81;83.40
76108;BME280;64834;52.516;10.528;2022-11-20T03:29:00;100603.44;;;-1.81;83.63
76108;BME280;64834;52.516;10.528;2022-11-20T03:31:27;100593.13;;;-1.90;83.91
76108;BME280;64834;52.516;10.528;2022-11-20T03:33:53;100598.81;;;-2.01;84.37
76108;BME280;64834;52.516;10.528;2022-11-20T03:36:21;100598.44;;;-1.88;83.85
76108;BME280;64834;52.516;10.528;2022-11-20T03:38:47;100593.81;;;-1.75;83.44
76108;BME280;64834;52.516;10.528;2022-11-20T03:41:17;100587.28;;;-1.80;83.56
76108;BME280;64834;52.516;10.528;2022-11-20T03:43:47;100591.16;;;-1.93;83.92
76108;BME280;64834;52.516;10.528;2022-11-20T03:46:13;100586.13;;;-1.75;83.33
76108;BME280;64834;52.516;10.528;2022-11-20T03:48:38;100580.19;;;-1.83;83.04
76108;BME280;64834;52.516;10.528;2022-11-20T03:51:10;100588.06;;;-1.81;83.22
76108;BME280;64834;52.516;10.528;2022-11-20T03:53:36;100578.09;;;-1.78;82.98
76108;BME280;64834;52.516;10.528;2022-11-20T03:56:02;100585.22;;;-1.76;82.89
76108;BME280;64834;52.516;10.528;2022-11-20T03:58:27;100585.03;;;-1.77;83.32
76108;BME280;64834;52.516;10.528;2022-11-20T04:00:52;100577.03;;;-1.80;83.22
76108;BME280;64834;52.516;10.528;2022-11-20T04:03:18;100579.47;;;-1.82;83.30
76108;BME280;64834;52.516;10.528;2022-11-20T04:05:43;100576.72;;;-1.83;83.37
76108;BME280;64834;52.516;10.528;2022-11-20T04:08:08;100572.31;;;-1.93;83.52
76108;BME280;64834;52.516;10.528;2022-11-20T04:10:34;100580.50;;;-1.80;83.46
76108;BME280;64834;52.516;10.528;2022-11-20T04:12:59;100575.09;;;-1.74;83.10
76108;BME280;64834;52.516;10.528;2022-11-20T04:15:24;100571.91;;;-1.72;82.76
76108;BME280;64834;52.516;10.528;2022-11-20T04:17:50;100573.38;;;-1.82;83.20
76108;BME280;64834;52.516;10.528;2022-11-20T04:20:15;100564.50;;;-1.86;82.99
76108;BME280;64834;52.516;10.528;2022-11-20T04:22:40;100567.25;;;-1.67;82.78
76108;BME280;64834;52.516;10.528;2022-11-20T04:25:06;100564.28;;;-1.63;81.99
76108;BME280;64834;52.516;10.528;2022-11-20T04:27:31;100566.03;;;-1.79;82.96
76108;BME280;64834;52.516;10.528;2022-11-20T04:29:57;100559.44;;;-1.69;83.56
76108;BME280;64834;52.516;10.528;2022-11-20T04:32:22;100554.88;;;-1.71;82.70
76108;BME280;64834;52.516;10.528;2022-11-20T04:34:47;100555.97;;;-1.60;82.91
76108;BME280;64834;52.516;10.528;2022-11-20T04:37:13;100558.97;;;-1.65;83.05
76108;BME280;64834;52.516;10.528;2022-11-20T04:39:38;100550.66;;;-1.71;83.67
76108;BME280;64834;52.516;10.528;2022-11-20T04:42:03;100554.72;;;-1.81;83.32
76108;BME280;64834;52.516;10.528;2022-11-20T04:44:47;100556.44;;;-1.56;82.30
76108;BME280;64834;52.516;10.528;2022-11-20T04:47:12;100559.28;;;-1.61;82.63
76108;BME280;64834;52.516;10.528;2022-11-20T04:49:37;100544.47;;;-1.64;82.86
76108;BME280;64834;52.516;10.528;2022-11-20T04:52:03;100544.00;;;-1.77;83.06
76108;BME280;64834;52.516;10.528;2022-11-20T04:54:28;100553.19;;;-1.88;83.79
76108;BME280;64834;52.516;10.528;2022-11-20T04:56:53;100549.09;;;-1.86;83.79
76108;BME280;64834;52.516;10.528;2022-11-20T04:59:19;100552.16;;;-1.81;83.98
76108;BME280;64834;52.516;10.528;2022-11-20T05:01:44;100552.50;;;-1.70;83.62
76108;BME280;64834;52.516;10.528;2022-11-20T05:04:09;100542.03;;;-1.71;83.25
76108;BME280;64834;52.516;10.528;2022-11-20T05:06:35;100545.78;;;-1.85;83.64
76108;BME280;64834;52.516;10.528;2022-11-20T05:09:00;100548.81;;;-1.80;83.60
76108;BME280;64834;52.516;10.528;2022-11-20T05:11:27;100546.69;;;-1.84;83.84
76108;BME280;64834;52.516;10.528;2022-11-20T05:13:54;100547.03;;;-1.81;83.71
76108;BME280;64834;52.516;10.528;2022-11-20T05:16:23;100551.34;;;-1.89;83.96
76108;BME280;64834;52.516;10.528;2022-11-20T05:18:52;100547.31;;;-1.78;83.65
76108;BME280;64834;52.516;10.528;2022-11-20T05:21:17;100543.06;;;-1.86;83.75
76108;BME280;64834;52.516;10.528;2022-11-20T05:23:44;100544.00;;;-1.77;83.72
76108;BME280;64834;52.516;10.528;2022-11-20T05:26:21;100533.13;;;-1.83;83.95
76108;BME280;64834;52.516;10.528;2022-11-20T05:28:47;100547.75;;;-1.82;84.15
76108;BME280;64834;52.516;10.528;2022-11-20T05:31:15;100543.84;;;-1.87;83.98
76108;BME280;64834;52.516;10.528;2022-11-20T05:33:41;100534.44;;;-1.96;84.84
76108;BME280;64834;52.516;10.528;2022-11-20T05:36:07;100540.66;;;-1.94;84.38
76108;BME280;64834;52.516;10.528;2022-11-20T05:38:33;100532.81;;;-1.86;84.39
76108;BME280;64834;52.516;10.528;2022-11-20T05:41:12;100530.41;;;-1.85;84.40
76108;BME280;64834;52.516;10.528;2022-11-20T05:43:40;100528.09;;;-1.99;84.89
76108;BME280;64834;52.516;10.528;2022-11-20T05:46:07;100524.94;;;-1.97;84.84
76108;BME280;64834;52.516;10.528;2022-11-20T05:48:33;100523.31;;;-1.87;85.08
76108;BME280;64834;52.516;10.528;2022-11-20T05:51:00;100524.66;;;-1.91;84.98
76108;BME280;64834;52.516;10.528;2022-11-20T05:53:26;100517.91;;;-1.82;84.41
76108;BME280;64834;52.516;10.528;2022-11-20T05:56:02;100515.03;;;-1.76;83.75
76108;BME280;64834;52.516;10.528;2022-11-20T05:58:28;100518.19;;;-1.79;84.05
76108;BME280;64834;52.516;10.528;2022-11-20T06:00:54;100516.06;;;-1.83;84.05
76108;BME280;64834;52.516;10.528;2022-11-20T06:03:20;100521.19;;;-1.92;84.29
76108;BME280;64834;52.516;10.528;2022-11-20T06:05:45;100511.69;;;-1.93;84.80
76108;BME280;64834;52.516;10.528;2022-11-20T06:08:10;100521.94;;;-1.93;84.11
76108;BME280;64834;52.516;10.528;2022-11-20T06:10:36;100523.75;;;-1.92;84.05
76108;BME280;64834;52.516;10.528;2022-11-20T06:13:01;100517.38;;;-1.95;84.00
76108;BME280;64834;52.516;10.528;2022-11-20T06:15:26;100516.47;;;-1.96;84.17
76108;BME280;64834;52.516;10.528;2022-11-20T06:17:53;100515.91;;;-1.93;83.96
76108;BME280;64834;52.516;10.528;2022-11-20T06:20:18;100515.91;;;-1.93;83.92
76108;BME280;64834;52.516;10.528;2022-11-20T06:22:44;100517.72;;;-1.92;84.16
76108;BME280;64834;52.516;10.528;2022-11-20T06:25:09;100527.06;;;-1.93;84.06
76108;BME280;64834;52.516;10.528;2022-11-20T06:27:34;100518.47;;;-1.93;84.14
76108;BME280;64834;52.516;10.528;2022-11-20T06:30:00;100523.13;;;-1.89;83.95
76108;BME280;64834;52.516;10.528;2022-11-20T06:32:25;100527.66;;;-1.95;84.24
76108;BME280;64834;52.516;10.528;2022-11-20T06:34:50;100527.41;;;-1.81;83.74
76108;BME280;64834;52.516;10.528;2022-11-20T06:37:16;100523.31;;;-1.87;84.29
76108;BME280;64834;52.516;10.528;2022-11-20T06:39:41;100523.19;;;-1.80;83.38
76108;BME280;64834;52.516;10.528;2022-11-20T06:42:06;100514.41;;;-1.91;84.08
76108;BME280;64834;52.516;10.528;2022-11-20T06:44:32;100516.38;;;-1.88;84.28
76108;BME280;64834;52.516;10.528;2022-11-20T06:46:57;100513.03;;;-1.96;84.23
76108;BME280;64834;52.516;10.528;2022-11-20T06:49:23;100515.63;;;-1.87;84.35
76108;BME280;64834;52.516;10.528;2022-11-20T06:51:48;100511.41;;;-1.87;83.91
76108;BME280;64834;52.516;10.528;2022-11-20T06:54:13;100516.38;;;-1.88;84.18
76108;BME280;64834;52.516;10.528;2022-11-20T06:56:39;100511.69;;;-1.84;84.02
76108;BME280;64834;52.516;10.528;2022-11-20T06:59:05;100515.50;;;-1.80;84.25
76108;BME280;64834;52.516;10.528;2022-11-20T07:01:31;100504.91;;;-1.92;84.39
76108;BME280;64834;52.516;10.528;2022-11-20T07:03:56;100511.53;;;-1.85;84.52
76108;BME280;64834;52.516;10.528;2022-11-20T07:06:21;100511.25;;;-1.80;84.09
76108;BME280;64834;52.516;10.528;2022-11-20T07:08:47;100505.81;;;-1.83;83.26
76108;BME280;64834;52.516;10.528;2022-11-20T07:11:12;100503.25;;;-1.83;82.65
76108;BME280;64834;52.516;10.528;2022-11-20T07:13:37;100506.56;;;-1.84;82.94
76108;BME280;64834;52.516;10.528;2022-11-20T07:16:05;100506.22;;;-1.96;83.50
76108;BME280;64834;52.516;10.528;2022-11-20T07:18:31;100500.66;;;-1.92;83.81
76108;BME280;64834;52.516;10.528;2022-11-20T07:21:00;100500.53;;;-1.84;83.74
76108;BME280;64834;52.516;10.528;2022-11-20T07:23:26;100503.41;;;-1.81;83.65
76108;BME280;64834;52.516;10.528;2022-11-20T07:25:51;100507.78;;;-1.80;83.47
76108;BME280;64834;52.516;10.528;2022-11-20T07:28:16;100506.13;;;-1.71;82.47
76108;BME280;64834;52.516;10.528;2022-11-20T07:30:42;100508.09;;;-1.77;83.07
76108;BME280;64834;52.516;10.528;2022-11-20T07:33:07;100508.84;;;-1.87;83.60
76108;BME280;64834;52.516;10.528;2022-11-20T07:35:33;100505.38;;;-1.79;83.22
76108;BME280;64834;52.516;10.528;2022-11-20T07:37:58;100500.69;;;-1.83;83.12
76108;BME280;64834;52.516;10.528;2022-11-20T07:40:23;100496.31;;;-1.84;83.51
76108;BME280;64834;52.516;10.528;2022-11-20T07:42:50;100495.44;;;-1.76;83.79
76108;BME280;64834;52.516;10.528;2022-11-20T07:45:19;100495.13;;;-1.79;83.87
76108;BME280;64834;52.516;10.528;2022-11-20T07:47:46;100495.88;;;-1.71;83.51
76108;BME280;64834;52.516;10.528;2022-11-20T07:50:12;100503.44;;;-1.64;83.25
76108;BME280;64834;52.516;10.528;2022-11-20T07:52:37;100500.13;;;-1.54;83.21
76108;BME280;64834;52.516;10.528;2022-11-20T07:55:03;100494.25;;;-1.62;83.13
76108;BME280;64834;52.516;10.528;2022-11-20T07:57:28;100488.03;;;-1.64;82.83
76108;BME280;64834;52.516;10.528;2022-11-20T07:59:54;100493.63;;;-1.68;82.96
76108;BME280;64834;52.516;10.528;2022-11-20T08:02:19;100503.00;;;-1.69;82.23
76108;BME280;64834;52.516;10.528;2022-11-20T08:04:44;100501.91;;;-1.71;82.86
76108;BME280;64834;52.516;10.528;2022-11-20T08:07:10;100497.25;;;-1.66;82.15
76108;BME280;64834;52.516;10.528;2022-11-20T08:09:35;100486.22;;;-1.65;82.30
76108;BME280;64834;52.516;10.528;2022-11-20T08:12:00;100491.69;;;-1.53;82.02
76108;BME280;64834;52.516;10.528;2022-11-20T08:14:44;100501.19;;;-1.70;81.51
76108;BME280;64834;52.516;10.528;2022-11-20T08:17:09;100490.03;;;-1.61;81.56
76108;BME280;64834;52.516;10.528;2022-11-20T08:19:35;100495.72;;;-1.64;81.11
76108;BME280;64834;52.516;10.528;2022-11-20T08:22:00;100492.88;;;-1.67;81.43
76108;BME280;64834;52.516;10.528;2022-11-20T08:24:25;100491.81;;;-1.52;81.51
76108;BME280;64834;52.516;10.528;2022-11-20T08:26:51;100497.84;;;-1.51;80.96
76108;BME280;64834;52.516;10.528;2022-11-20T08:29:17;100493.66;;;-1.51;80.82
76108;BME280;64834;52.516;10.528;2022-11-20T08:31:42;100504.66;;;-1.52;80.05
76108;BME280;64834;52.516;10.528;2022-11-20T08:34:08;100511.78;;;-1.49;80.08
76108;BME280;64834;52.516;10.528;2022-11-20T08:36:34;100502.84;;;-1.53;79.82
76108;BME280;64834;52.516;10.528;2022-11-20T08:39:00;100498.16;;;-1.40;80.00
76108;BME280;64834;52.516;10.528;2022-11-20T08:41:25;100500.00;;;-1.30;79.45
76108;BME280;64834;52.516;10.528;2022-11-20T08:43:59;100497.88;;;-1.34;79.45
76108;BME280;64834;52.516;10.528;2022-11-20T08:46:27;100492.75;;;-1.43;79.16
76108;BME280;64834;52.516;10.528;2022-11-20T08:48:53;100502.41;;;-1.40;78.62
76108;BME280;64834;52.516;10.528;2022-11-20T08:51:19;100511.47;;;-1.44;79.36
76108;BME280;64834;52.516;10.528;2022-11-20T08:53:45;100502.41;;;-1.31;79.99
76108;BME280;64834;52.516;10.528;2022-11-20T08:56:11;100498.19;;;-1.31;79.18
76108;BME280;64834;52.516;10.528;2022-11-20T08:58:38;100499.38;;;-1.27;78.51
76108;BME280;64834;52.516;10.528;2022-11-20T09:01:03;100498.91;;;-1.15;78.43
76108;BME280;64834;52.516;10.528;2022-11-20T09:03:29;100502.22;;;-1.07;78.24
76108;BME280;64834;52.516;10.528;2022-11-20T09:05:58;100508.88;;;-1.09;77.54
76108;BME280;64834;52.516;10.528;2022-11-20T09:08:24;100511.75;;;-1.15;77.61
76108;BME280;64834;52.516;10.528;2022-11-20T09:10:54;100513.44;;;-1.06;78.12
76108;BME280;64834;52.516;10.528;2022-11-20T09:13:20;100505.88;;;-1.05;77.67
76108;BME280;64834;52.516;10.528;2022-11-20T09:15:46;100504.22;;;-1.13;77.93
76108;BME280;64834;52.516;10.528;2022-11-20T09:18:11;100506.31;;;-1.09;77.32
76108;BME280;64834;52.516;10.528;2022-11-20T09:20:36;100504.81;;;-0.98;77.68
76108;BME280;64834;52.516;10.528;2022-11-20T09:23:02;100501.31;;;-0.82;77.42
76108;BME280;64834;52.516;10.528;2022-11-20T09:25:27;100501.56;;;-0.70;77.67
76108;BME280;64834;52.516;10.528;2022-11-20T09:27:57;100498.41;;;-0.67;76.24
76108;BME280;64834;52.516;10.528;2022-11-20T09:30:22;100499.34;;;-0.75;76.81
76108;BME280;64834;52.516;10.528;2022-11-20T09:32:48;100489.31;;;-0.64;76.74
76108;BME280;64834;52.516;10.528;2022-11-20T09:35:13;100488.28;;;-0.66;76.54
76108;BME280;64834;52.516;10.528;2022-11-20T09:37:39;100491.56;;;-0.58;76.13
76108;BME280;64834;52.516;10.528;2022-11-20T09:40:05;100487.06;;;-0.61;76.00
76108;BME280;64834;52.516;10.528;2022-11-20T09:42:58;100493.44;;;-0.74;75.50
76108;BME280;64834;52.516;10.528;2022-11-20T09:48:49;100499.53;;;-1.00;76.57
76108;BME280;64834;52.516;10.528;2022-11-20T09:51:31;100490.31;;;-0.98;77.43
76108;BME280;64834;52.516;10.528;2022-11-20T09:54:21;100489.22;;;-0.91;77.85
76108;BME280;64834;52.516;10.528;2022-11-20T09:56:51;100484.38;;;-0.79;77.01
76108;BME280;64834;52.516;10.528;2022-11-20T09:59:29;100478.94;;;-0.74;76.33
76108;BME280;64834;52.516;10.528;2022-11-20T10:01:59;100476.63;;;-0.71;77.05
76108;BME280;64834;52.516;10.528;2022-11-20T10:04:25;100470.72;;;-0.61;75.44
76108;BME280;64834;52.516;10.528;2022-11-20T10:09:32;100466.34;;;-0.62;76.39
76108;BME280;64834;52.516;10.528;2022-11-20T10:14:41;100473.25;;;-0.44;75.40
76108;BME280;64834;52.516;10.528;2022-11-20T10:17:25;100470.63;;;-0.35;74.92
76108;BME280;64834;52.516;10.528;2022-11-20T10:20:17;100466.53;;;-0.33;74.57
76108;BME280;64834;52.516;10.528;2022-11-20T10:25:37;100475.00;;;-0.34;75.03
76108;BME280;64834;52.516;10.528;2022-11-20T10:31:34;100456.97;;;-0.25;74.25
76108;BME280;64834;52.516;10.528;2022-11-20T10:34:06;100462.91;;;-0.35;74.55
76108;BME280;64834;52.516;10.528;2022-11-20T10:36:44;100442.34;;;-0.35;75.02
76108;BME280;64834;52.516;10.528;2022-11-20T10:41:52;100448.53;;;-0.33;74.57
76108;BME280;64834;52.516;10.528;2022-11-20T10:44:20;100450.00;;;-0.18;75.24
76108;BME280;64834;52.516;10.528;2022-11-20T10:47:12;100447.56;;;-0.16;74.18
76108;BME280;64834;52.516;10.528;2022-11-20T10:49:37;100448.44;;;-0.16;74.45
76108;BME280;64834;52.516;10.528;2022-11-20T10:57:23;100438.28;;;-0.06;73.65
76108;BME280;64834;52.516;10.528;2022-11-20T10:59:59;100439.53;;;-0.19;74.02
76108;BME280;64834;52.516;10.528;2022-11-20T11:02:34;100432.91;;;-0.26;74.30
76108;BME280;64834;52.516;10.528;2022-11-20T11:05:39;100443.53;;;-0.32;74.11
76108;BME280;64834;52.516;10.528;2022-11-20T11:08:12;100435.16;;;-0.20;75.07
76108;BME280;64834;52.516;10.528;2022-11-20T11:10:46;100428.97;;;-0.22;73.70
76108;BME280;64834;52.516;10.528;2022-11-20T11:13:24;100430.00;;;-0.20;74.58
76108;BME280;64834;52.516;10.528;2022-11-20T11:15:50;100426.28;;;-0.24;74.66
76108;BME280;64834;52.516;10.528;2022-11-20T11:18:33;100424.59;;;-0.23;74.56
76108;BME280;64834;52.516;10.528;2022-11-20T11:21:04;100424.88;;;-0.20;73.90
76108;BME280;64834;52.516;10.528;2022-11-20T11:23:36;100432.25;;;-0.15;74.62
76108;BME280;64834;52.516;10.528;2022-11-20T11:26:04;100420.03;;;-0.17;74.66
76108;BME280;64834;52.516;10.528;2022-11-20T11:28:30;100429.78;;;-0.32;76.58
76108;BME280;64834;52.516;10.528;2022-11-20T11:30:55;100431.44;;;-0.33;77.04
76108;BME280;64834;52.516;10.528;2022-11-20T11:33:31;100436.31;;;-0.36;76.79
76108;BME280;64834;52.516;10.528;2022-11-20T11:36:03;100433.75;;;-0.36;76.64
76108;BME280;64834;52.516;10.528;2022-11-20T11:38:40;100432.69;;;-0.38;77.24
76108;BME280;64834;52.516;10.528;2022-11-20T11:41:12;100431.03;;;-0.37;77.54
76108;BME280;64834;52.516;10.528;2022-11-20T11:43:56;100432.84;;;-0.45;77.47
76108;BME280;64834;52.516;10.528;2022-11-20T11:46:45;100438.81;;;-0.55;79.18
76108;BME280;64834;52.516;10.528;2022-11-20T11:49:18;100438.38;;;-0.59;81.91
76108;BME280;64834;52.516;10.528;2022-11-20T11:52:04;100434.03;;;-0.77;83.49
76108;BME280;64834;52.516;10.528;2022-11-20T11:54:46;100432.88;;;-0.81;84.95
76108;BME280;64834;52.516;10.528;2022-11-20T11:57:37;100432.88;;;-0.81;85.51
76108;BME280;64834;52.516;10.528;2022-11-20T12:00:10;100434.34;;;-0.74;85.16
76108;BME280;64834;52.516;10.528;2022-11-20T12:08:18;100426.47;;;-0.67;85.41
76108;BME280;64834;52.516;10.528;2022-11-20T12:10:51;100428.16;;;-0.76;86.29
76108;BME280;64834;52.516;10.528;2022-11-20T12:13:37;100422.72;;;-0.79;85.65
76108;BME280;64834;52.516;10.528;2022-11-20T12:16:10;100423.19;;;-0.75;85.96
76108;BME280;64834;52.516;10.528;2022-11-20T12:18:36;100420.63;;;-0.84;85.18
76108;BME280;64834;52.516;10.528;2022-11-20T12:29:58;100426.09;;;-0.53;83.55
76108;BME280;64834;52.516;10.528;2022-11-20T12:41:17;100405.50;;;-0.17;82.66
76108;BME280;64834;52.516;10.528;2022-11-20T12:47:26;100399.50;;;0.02;81.54
76108;BME280;64834;52.516;10.528;2022-11-20T12:49:56;100407.81;;;0.18;81.19
76108;BME280;64834;52.516;10.528;2022-11-20T12:52:38;100402.47;;;0.06;81.17
76108;BME280;64834;52.516;10.528;2022-11-20T12:57:57;100399.16;;;0.07;81.93
76108;BME280;64834;52.516;10.528;2022-11-20T13:00:24;100397.31;;;0.06;80.56
76108;BME280;64834;52.516;10.528;2022-11-20T13:05:59;100392.03;;;0.05;81.74
76108;BME280;64834;52.516;10.528;2022-11-20T13:08:33;100388.91;;;-0.02;80.41
76108;BME280;64834;52.516;10.528;2022-11-20T13:13:32;100391.97;;;-0.06;80.96
76108;BME280;64834;52.516;10.528;2022-11-20T13:18:41;100390.00;;;-0.08;81.66
76108;BME280;64834;52.516;10.528;2022-11-20T13:21:36;100384.53;;;-0.03;80.76
76108;BME280;64834;52.516;10.528;2022-11-20T13:24:26;100389.06;;;0.00;80.29
76108;BME280;64834;52.516;10.528;2022-11-20T13:27:18;100384.06;;;0.02;80.23
76108;BME280;64834;52.516;10.528;2022-11-20T13:29:46;100382.31;;;0.11;80.54
76108;BME280;64834;52.516;10.528;2022-11-20T13:32:15;100371.00;;;0.09;79.74
76108;BME280;64834;52.516;10.528;2022-11-20T13:34:54;100378.56;;;0.07;79.00
76108;BME280;64834;52.516;10.528;2022-11-20T13:37:33;100388.31;;;0.01;79.53
76108;BME280;64834;52.516;10.528;2022-11-20T13:42:38;100385.84;;;0.03;78.98
76108;BME280;64834;52.516;10.528;2022-11-20T13:45:11;100384.81;;;0.01;78.12
76108;BME280;64834;52.516;10.528;2022-11-20T13:47:50;100379.13;;;-0.06;77.98
76108;BME280;64834;52.516;10.528;2022-11-20T13:50:16;100377.03;;;-0.10;78.47
76108;BME280;64834;52.516;10.528;2022-11-20T13:53:19;100367.53;;;-0.19;79.02
76108;BME280;64834;52.516;10.528;2022-11-20T13:58:49;100370.50;;;-0.34;80.28
76108;BME280;64834;52.516;10.528;2022-11-20T14:01:26;100361.13;;;-0.33;81.37